Time;durP1;ratioP1;P1;durP2;ratioP2;P2;SDS_P1;SDS_P2;PMS_P1;PMS_P2;Temp;Humidity;BMP_temperature;BMP_pressure;BME280_temperature;BME280_humidity;BME280_pressure;Samples;Min_cycle;Max_cycle;Signal;HPM_P1;HPM_P2
2023/10/23 00:01:06;;;;;;;3.13;2.33;;;;;;;7.92;100.00;100980.19;4948867;28;20190;-42
2023/10/23 00:03:32;;;;;;;3.60;2.38;;;;;;;7.95;100.00;100988.97;4950116;28;20218;-43
2023/10/23 00:05:57;;;;;;;7.22;2.92;;;;;;;7.92;100.00;100975.72;4946798;28;20214;-43
2023/10/23 00:08:23;;;;;;;6.88;2.60;;;;;;;7.90;100.00;100984.66;4944602;28;20191;-43
2023/10/23 00:10:49;;;;;;;4.45;2.35;;;;;;;7.92;100.00;100980.19;4949407;28;20225;-43
2023/10/23 00:13:14;;;;;;;5.95;2.58;;;;;;;7.91;100.00;100973.06;4946004;28;20185;-43
2023/10/23 00:15:40;;;;;;;4.50;2.42;;;;;;;7.88;100.00;100974.03;4927509;29;20236;-43
2023/10/23 00:18:05;;;;;;;5.15;2.97;;;;;;;7.86;100.00;100991.88;4944313;28;20291;-43
2023/10/23 00:20:30;;;;;;;4.68;2.60;;;;;;;7.85;100.00;100992.78;4945101;28;20216;-43
2023/10/23 00:22:56;;;;;;;4.75;2.85;;;;;;;7.83;100.00;100991.94;4944792;28;20217;-42
2023/10/23 00:25:21;;;;;;;4.53;2.33;;;;;;;7.82;100.00;100988.38;4942321;28;20238;-42
2023/10/23 00:27:47;;;;;;;4.90;2.67;;;;;;;7.74;100.00;100998.38;4941075;28;20258;-45
2023/10/23 00:30:12;;;;;;;4.47;3.08;;;;;;;7.69;100.00;100992.25;4929109;29;20182;-42
2023/10/23 00:32:38;;;;;;;2.90;2.67;;;;;;;7.70;100.00;100996.69;4939675;28;20543;-42
2023/10/23 00:35:05;;;;;;;3.15;2.40;;;;;;;7.67;100.00;101007.41;4944238;28;20230;-45
2023/10/23 00:37:30;;;;;;;6.75;2.90;;;;;;;7.59;100.00;101001.41;4934244;29;20186;-44
2023/10/23 00:39:56;;;;;;;4.35;2.60;;;;;;;7.52;100.00;101003.34;4942805;28;20572;-45
2023/10/23 00:42:21;;;;;;;5.55;2.85;;;;;;;7.54;100.00;101000.63;4932055;29;20305;-41
2023/10/23 00:44:46;;;;;;;3.45;2.63;;;;;;;7.53;100.00;100998.88;4944989;28;20211;-43
2023/10/23 00:47:12;;;;;;;8.45;2.92;;;;;;;7.45;100.00;101008.84;4929248;28;20623;-43
2023/10/23 00:49:38;;;;;;;6.13;3.05;;;;;;;7.49;100.00;101018.53;4950349;28;20221;-42
2023/10/23 00:52:05;;;;;;;3.75;2.97;;;;;;;7.44;100.00;101013.28;4951355;28;20277;-43
2023/10/23 00:54:32;;;;;;;6.50;2.80;;;;;;;7.42;100.00;101018.66;4930138;29;20241;-44
2023/10/23 00:56:58;;;;;;;4.30;3.20;;;;;;;7.39;100.00;101010.72;4946908;28;20185;-42
2023/10/23 00:59:24;;;;;;;5.78;3.10;;;;;;;7.42;100.00;101010.66;4930373;29;20214;-43
2023/10/23 01:01:50;;;;;;;3.05;2.60;;;;;;;7.49;100.00;101018.53;4929946;29;20179;-42
2023/10/23 01:04:16;;;;;;;5.80;2.70;;;;;;;7.50;100.00;101013.16;4935637;29;20213;-44
2023/10/23 01:06:41;;;;;;;7.70;2.95;;;;;;;7.47;100.00;101025.66;4942341;28;20280;-45
2023/10/23 01:09:07;;;;;;;3.70;3.15;;;;;;;7.45;100.00;101023.03;4933458;28;20185;-43
2023/10/23 01:11:33;;;;;;;5.70;3.10;;;;;;;7.52;100.00;101027.34;4943612;28;20186;-43
2023/10/23 01:13:59;;;;;;;8.93;3.25;;;;;;;7.54;100.00;101022.84;4948912;28;20194;-42
2023/10/23 01:16:24;;;;;;;4.40;2.80;;;;;;;7.52;100.00;101029.09;4950088;28;20210;-41
2023/10/23 01:18:49;;;;;;;7.78;3.50;;;;;;;7.52;100.00;101034.44;4938403;29;20564;-44
2023/10/23 01:21:16;;;;;;;3.30;3.00;;;;;;;7.53;100.00;101039.75;4937732;28;20609;-43
2023/10/23 01:23:43;;;;;;;5.40;3.00;;;;;;;7.53;100.00;101045.06;4951500;28;20207;-45
2023/10/23 01:26:09;;;;;;;4.53;2.90;;;;;;;7.56;100.00;101028.13;4953269;28;20210;-42
2023/10/23 01:28:34;;;;;;;5.50;3.20;;;;;;;7.54;100.00;101028.19;4952872;28;20190;-42
2023/10/23 01:31:00;;;;;;;4.43;2.90;;;;;;;7.60;100.00;101040.47;4948274;28;20213;-45
2023/10/23 01:33:25;;;;;;;3.60;2.88;;;;;;;7.63;100.00;101037.72;4935094;29;20269;-42
2023/10/23 01:35:51;;;;;;;4.65;2.72;;;;;;;7.55;100.00;101021.91;4933869;28;20290;-42
2023/10/23 01:38:17;;;;;;;3.25;2.95;;;;;;;7.55;100.00;101029.06;4944781;29;20189;-45
2023/10/23 01:40:42;;;;;;;7.82;3.92;;;;;;;7.52;100.00;101021.09;4932980;29;20736;-47
2023/10/23 01:43:08;;;;;;;5.45;3.47;;;;;;;7.53;100.00;101022.88;4929638;28;20183;-41
2023/10/23 01:45:33;;;;;;;4.78;3.95;;;;;;;7.48;100.00;101016.75;4946081;28;20324;-41
2023/10/23 01:47:59;;;;;;;6.03;3.67;;;;;;;7.47;100.00;101023.00;4944533;28;20205;-46
2023/10/23 01:50:24;;;;;;;7.15;4.00;;;;;;;7.41;100.00;101030.25;4954398;28;20225;-43
2023/10/23 01:52:50;;;;;;;6.32;3.75;;;;;;;7.36;100.00;101021.44;4929827;29;20191;-43
2023/10/23 01:55:16;;;;;;;4.28;3.40;;;;;;;7.34;100.00;101025.94;4949282;28;20207;-44
2023/10/23 01:57:41;;;;;;;6.93;3.50;;;;;;;7.42;100.00;101028.44;4943728;28;20246;-45
2023/10/23 02:00:09;;;;;;;8.60;3.58;;;;;;;7.32;100.00;101029.53;4933562;29;20225;-43
2023/10/23 02:02:38;;;;;;;7.72;4.30;;;;;;;7.29;100.00;101030.50;4947897;29;20290;-45
2023/10/23 02:05:04;;;;;;;5.18;3.65;;;;;;;7.26;100.00;101033.22;4932550;29;20203;-42
2023/10/23 02:07:29;;;;;;;6.38;4.18;;;;;;;7.31;100.00;101030.47;4943510;29;20250;-43
2023/10/23 02:09:58;;;;;;;6.38;4.10;;;;;;;7.31;100.00;101034.00;4932629;29;20187;-45
2023/10/23 02:12:24;;;;;;;8.18;3.85;;;;;;;7.19;100.00;101036.91;4947698;28;20226;-42
2023/10/23 02:14:53;;;;;;;7.13;4.30;;;;;;;7.23;100.00;101054.59;4936217;29;20594;-43
2023/10/23 02:17:19;;;;;;;6.10;3.95;;;;;;;7.18;100.00;101051.16;4937370;28;20217;-43
2023/10/23 02:19:45;;;;;;;6.53;3.50;;;;;;;7.18;100.00;101057.38;4944156;29;20183;-43
2023/10/23 02:22:11;;;;;;;6.40;4.13;;;;;;;7.10;100.00;101053.09;4929903;29;20223;-43
2023/10/23 02:24:37;;;;;;;5.50;3.60;;;;;;;7.08;100.00;101060.25;4933185;29;20218;-45
2023/10/23 02:27:02;;;;;;;5.60;4.13;;;;;;;7.00;100.00;101057.75;4948053;28;20274;-44
2023/10/23 02:29:28;;;;;;;4.22;3.65;;;;;;;7.08;100.00;101068.22;4946343;28;20258;-46
2023/10/23 02:31:54;;;;;;;7.18;3.83;;;;;;;6.94;100.00;101066.72;4944505;29;20182;-42
2023/10/23 02:34:19;;;;;;;3.58;3.17;;;;;;;6.92;100.00;101073.88;4945485;29;20286;-42
2023/10/23 02:36:45;;;;;;;7.10;4.03;;;;;;;6.90;100.00;101072.16;4951182;28;20202;-43
2023/10/23 02:39:10;;;;;;;5.45;4.40;;;;;;;6.86;100.00;101071.31;4932731;28;20170;-46
2023/10/23 02:41:36;;;;;;;6.00;3.65;;;;;;;6.83;100.00;101068.72;4944419;28;20183;-43
2023/10/23 02:44:02;;;;;;;7.40;4.05;;;;;;;6.78;100.00;101071.47;4930194;29;20680;-43
2023/10/23 02:46:27;;;;;;;7.20;4.45;;;;;;;6.78;100.00;101076.78;4945768;28;20207;-41
2023/10/23 02:48:53;;;;;;;4.38;3.55;;;;;;;6.85;100.00;101074.03;4945782;29;20195;-42
2023/10/23 02:51:19;;;;;;;4.80;3.58;;;;;;;6.73;100.00;101080.44;4936236;28;20221;-46
2023/10/23 02:53:44;;;;;;;4.05;3.42;;;;;;;6.74;100.00;101076.88;4940902;28;20729;-44
2023/10/23 02:56:13;;;;;;;6.13;3.60;;;;;;;6.70;100.00;101080.50;4946310;28;20213;-44
2023/10/23 02:58:38;;;;;;;4.05;3.65;;;;;;;6.64;100.00;101088.59;4943080;29;20190;-43
2023/10/23 03:01:21;;;;;;;5.15;3.53;;;;;;;6.61;100.00;101092.19;4945165;29;20183;-46
2023/10/23 03:03:47;;;;;;;5.88;3.70;;;;;;;6.71;100.00;101092.91;4945114;28;20182;-45
2023/10/23 03:06:13;;;;;;;6.40;3.38;;;;;;;6.69;100.00;101100.94;4950081;28;20678;-46
2023/10/23 03:08:39;;;;;;;8.57;3.60;;;;;;;6.51;100.00;101098.59;4931614;29;20437;-42
2023/10/23 03:11:05;;;;;;;6.88;3.38;;;;;;;6.60;100.00;101109.06;4929190;28;20192;-50
2023/10/23 03:13:34;;;;;;;7.05;3.30;;;;;;;6.49;100.00;101101.25;4947450;28;20218;-42
2023/10/23 03:15:59;;;;;;;8.75;3.60;;;;;;;6.54;100.00;101104.75;4948629;28;20424;-42
2023/10/23 03:18:25;;;;;;;5.85;3.30;;;;;;;6.56;100.00;101100.28;4942836;29;20326;-47
2023/10/23 03:20:50;;;;;;;7.15;3.67;;;;;;;6.44;100.00;101102.25;4951444;28;20191;-43
2023/10/23 03:23:16;;;;;;;5.75;3.33;;;;;;;6.43;100.00;101105.81;4940534;29;20179;-41
2023/10/23 03:25:42;;;;;;;4.45;3.05;;;;;;;6.47;100.00;101105.75;4918157;29;20649;-42
2023/10/23 03:28:08;;;;;;;7.50;3.78;;;;;;;6.47;100.00;101099.53;4945394;28;20279;-47
2023/10/23 03:30:34;;;;;;;4.15;3.75;;;;;;;6.47;100.00;101103.09;4947557;28;20278;-42
2023/10/23 03:32:59;;;;;;;4.38;3.47;;;;;;;6.49;100.00;101111.03;4948619;28;20206;-43
2023/10/23 03:35:25;;;;;;;8.77;3.72;;;;;;;6.41;100.00;101116.50;4931838;28;20202;-46
2023/10/23 03:37:51;;;;;;;4.38;3.63;;;;;;;6.44;100.00;101115.56;4945335;28;20175;-43
2023/10/23 03:40:19;;;;;;;5.57;3.60;;;;;;;6.47;100.00;101120.81;4945875;28;20257;-45
2023/10/23 03:42:45;;;;;;;4.55;3.30;;;;;;;6.42;100.00;101120.03;4933062;29;20191;-44
2023/10/23 03:45:10;;;;;;;7.32;3.30;;;;;;;6.34;100.00;101113.06;4946377;28;20203;-44
2023/10/23 03:47:36;;;;;;;4.20;3.17;;;;;;;6.36;100.00;101111.25;4932558;29;20672;-42
2023/10/23 03:50:02;;;;;;;10.38;3.67;;;;;;;6.35;100.00;101113.94;4945715;29;20187;-43
2023/10/23 03:52:28;;;;;;;10.15;4.03;;;;;;;6.38;100.00;101116.53;4928446;29;20190;-44
2023/10/23 03:54:53;;;;;;;6.15;4.05;;;;;;;6.38;100.00;101106.78;4949081;28;20342;-44
2023/10/23 03:57:19;;;;;;;5.05;3.72;;;;;;;6.37;100.00;101120.97;4947939;28;20553;-45
2023/10/23 03:59:44;;;;;;;5.75;3.58;;;;;;;6.37;100.00;101117.44;4949206;28;20636;-43
2023/10/23 04:02:10;;;;;;;6.47;3.95;;;;;;;6.35;100.00;101113.94;4947280;28;20171;-43
2023/10/23 04:04:35;;;;;;;6.15;4.40;;;;;;;6.36;100.00;101123.66;4952645;28;20206;-45
2023/10/23 04:07:01;;;;;;;6.78;4.13;;;;;;;6.35;100.00;101121.91;4946578;28;20580;-45
2023/10/23 04:09:29;;;;;;;5.70;3.78;;;;;;;6.37;100.00;101120.13;4949316;28;20278;-43
2023/10/23 04:11:55;;;;;;;8.52;3.85;;;;;;;6.37;100.00;101125.44;4945058;28;20762;-42
2023/10/23 04:14:20;;;;;;;7.18;3.72;;;;;;;6.40;100.00;101128.03;4945519;28;20338;-44
2023/10/23 04:16:46;;;;;;;4.90;3.40;;;;;;;6.32;100.00;101130.84;4947923;28;20179;-46
2023/10/23 04:19:11;;;;;;;6.13;3.80;;;;;;;6.25;100.00;101133.59;4933887;28;20697;-43
2023/10/23 04:21:39;;;;;;;4.68;3.40;;;;;;;6.34;100.00;101138.78;4946825;28;20194;-43
2023/10/23 04:24:10;;;;;;;7.63;4.55;;;;;;;6.37;100.00;101146.72;4934736;29;20424;-44
2023/10/23 04:26:36;;;;;;;8.13;4.07;;;;;;;6.19;100.00;101148.78;4941227;28;20198;-44
2023/10/23 04:29:02;;;;;;;5.38;3.85;;;;;;;6.26;100.00;101152.22;4945949;28;20186;-45
2023/10/23 04:31:27;;;;;;;6.88;3.97;;;;;;;6.30;100.00;101153.06;4949661;28;20186;-43
2023/10/23 04:33:53;;;;;;;5.40;3.88;;;;;;;6.30;100.00;101153.06;4943314;28;20211;-44
2023/10/23 04:36:19;;;;;;;5.80;4.25;;;;;;;6.37;100.00;101149.38;4947424;28;20215;-43
2023/10/23 04:38:44;;;;;;;7.60;4.82;;;;;;;6.41;100.00;101143.13;4946440;28;20609;-43
2023/10/23 04:41:09;;;;;;;5.50;4.97;;;;;;;6.40;100.00;101142.22;4949052;28;20186;-45
2023/10/23 04:43:35;;;;;;;3.88;3.47;;;;;;;6.46;100.00;101151.91;4946799;29;20202;-43
2023/10/23 04:46:01;;;;;;;5.20;4.13;;;;;;;6.40;100.00;101152.00;4944235;28;20215;-42
2023/10/23 04:48:26;;;;;;;4.65;4.18;;;;;;;6.37;100.00;101152.91;4946886;28;20191;-44
2023/10/23 04:50:58;;;;;;;7.68;4.22;;;;;;;6.36;100.00;101142.28;4942919;28;20199;-45
2023/10/23 04:53:23;;;;;;;9.57;4.65;;;;;;;6.38;100.00;101137.81;4945577;28;20244;-44
2023/10/23 04:55:49;;;;;;;8.32;4.53;;;;;;;6.37;100.00;101142.28;4949312;28;20198;-45
2023/10/23 04:58:14;;;;;;;8.30;4.70;;;;;;;6.40;100.00;101152.00;4942273;28;20199;-42
2023/10/23 05:00:40;;;;;;;6.65;4.78;;;;;;;6.37;100.00;101144.06;4947043;29;20225;-43
2023/10/23 05:03:05;;;;;;;6.75;3.53;;;;;;;6.39;100.00;101156.44;4943906;28;20184;-44
2023/10/23 05:05:31;;;;;;;6.57;4.35;;;;;;;6.33;100.00;101151.19;4944928;28;20202;-42
2023/10/23 05:07:57;;;;;;;10.63;4.93;;;;;;;6.28;100.00;101152.19;4952177;28;20198;-44
2023/10/23 05:10:23;;;;;;;6.03;4.93;;;;;;;6.23;100.00;101156.69;4949397;28;20198;-45
2023/10/23 05:12:49;;;;;;;7.18;4.97;;;;;;;6.25;100.00;101154.88;4949833;28;20190;-44
2023/10/23 05:15:16;;;;;;;6.25;4.80;;;;;;;6.13;100.00;101159.50;4946959;28;20246;-45
2023/10/23 05:17:42;;;;;;;5.80;4.40;;;;;;;6.12;100.00;101162.16;4942041;29;20235;-44
2023/10/23 05:20:08;;;;;;;9.35;5.15;;;;;;;6.11;100.00;101168.41;4944659;29;20662;-46
2023/10/23 05:22:33;;;;;;;8.40;4.72;;;;;;;6.11;100.00;101166.63;4950426;28;20656;-47
2023/10/23 05:24:59;;;;;;;6.75;4.85;;;;;;;6.03;100.00;101172.94;4942010;28;20226;-46
2023/10/23 05:27:25;;;;;;;5.88;5.20;;;;;;;6.01;100.00;101161.44;4941983;28;20269;-42
2023/10/23 05:29:51;;;;;;;6.47;5.50;;;;;;;6.04;100.00;101164.94;4945383;29;20270;-44
2023/10/23 05:32:16;;;;;;;10.30;4.97;;;;;;;6.07;100.00;101170.22;4945440;28;20179;-43
2023/10/23 05:34:45;;;;;;;10.98;4.85;;;;;;;6.04;100.00;101172.94;4944601;28;20202;-45
2023/10/23 05:37:11;;;;;;;10.38;4.85;;;;;;;6.06;100.00;101172.91;4943923;28;20187;-45
2023/10/23 05:39:36;;;;;;;10.05;5.25;;;;;;;6.11;100.00;101174.59;4946548;28;20676;-45
2023/10/23 05:42:02;;;;;;;11.20;5.93;;;;;;;6.07;100.00;101174.66;4942845;29;20334;-43
2023/10/23 05:44:27;;;;;;;8.80;5.35;;;;;;;6.06;100.00;101175.59;4948819;28;20291;-46
2023/10/23 05:46:53;;;;;;;8.18;5.32;;;;;;;6.02;100.00;101179.19;4946652;28;20998;-45
2023/10/23 05:49:19;;;;;;;9.88;5.43;;;;;;;5.96;100.00;101177.47;4944387;28;20246;-43
2023/10/23 05:51:44;;;;;;;7.22;5.63;;;;;;;6.00;100.00;101189.84;4944129;28;20270;-45
2023/10/23 05:54:10;;;;;;;6.50;5.50;;;;;;;6.00;100.00;101202.25;4943608;28;20267;-44
2023/10/23 05:56:36;;;;;;;11.18;5.65;;;;;;;6.03;100.00;101195.09;4946029;29;20812;-42
2023/10/23 05:59:03;;;;;;;10.48;5.95;;;;;;;5.95;100.00;101204.97;4949231;28;20258;-45
2023/10/23 06:01:29;;;;;;;7.13;5.82;;;;;;;5.92;100.00;101204.97;4951534;28;20529;-43
2023/10/23 06:03:55;;;;;;;8.48;5.57;;;;;;;5.88;100.00;101212.13;4947591;28;20187;-43
2023/10/23 06:06:21;;;;;;;11.82;6.05;;;;;;;5.86;100.00;101218.34;4946200;28;20269;-43
2023/10/23 06:08:46;;;;;;;9.25;6.30;;;;;;;5.88;100.00;101216.53;4950268;28;20223;-44
2023/10/23 06:11:12;;;;;;;6.70;5.50;;;;;;;5.94;100.00;101227.09;4953162;29;20194;-43
2023/10/23 06:13:38;;;;;;;7.13;5.45;;;;;;;5.96;100.00;101226.22;4936400;29;20278;-42
2023/10/23 06:16:04;;;;;;;9.48;6.13;;;;;;;5.94;100.00;101228.00;4947691;28;20323;-42
2023/10/23 06:18:34;;;;;;;12.27;6.70;;;;;;;5.98;100.00;101226.19;4946524;28;20202;-42
2023/10/23 06:21:04;;;;;;;12.35;6.10;;;;;;;6.00;100.00;101226.19;4949881;28;20327;-42
2023/10/23 06:23:33;;;;;;;13.80;6.35;;;;;;;6.00;100.00;101231.50;4951465;28;20485;-42
2023/10/23 06:25:59;;;;;;;7.78;5.97;;;;;;;6.06;100.00;101234.97;4949072;28;20222;-42
2023/10/23 06:28:26;;;;;;;10.82;6.40;;;;;;;6.07;100.00;101228.75;4944965;28;20194;-43
2023/10/23 06:30:51;;;;;;;11.90;6.18;;;;;;;6.06;100.00;101236.75;4950067;28;20669;-42
2023/10/23 06:33:17;;;;;;;8.60;6.07;;;;;;;6.09;100.00;101239.38;4943448;28;20187;-42
2023/10/23 06:35:43;;;;;;;9.90;6.30;;;;;;;6.10;100.00;101244.69;4951808;28;20206;-41
2023/10/23 06:38:08;;;;;;;9.20;6.53;;;;;;;6.14;100.00;101248.16;4948776;29;20191;-42
2023/10/23 06:40:34;;;;;;;10.77;6.65;;;;;;;6.12;100.00;101248.19;4946556;28;20195;-43
2023/10/23 06:42:59;;;;;;;13.68;6.80;;;;;;;6.26;100.00;101252.44;4947158;28;20269;-42
2023/10/23 06:45:25;;;;;;;11.35;6.20;;;;;;;6.31;100.00;101247.94;4949180;28;20317;-42
2023/10/23 06:47:50;;;;;;;12.35;6.93;;;;;;;6.51;100.00;101245.84;4944312;28;20195;-42
2023/10/23 06:50:16;;;;;;;8.63;6.55;;;;;;;6.63;100.00;101244.81;4946254;28;20261;-42
2023/10/23 06:52:43;;;;;;;11.15;6.47;;;;;;;6.75;100.00;101249.06;4945555;28;20240;-42
2023/10/23 06:55:09;;;;;;;7.47;6.63;;;;;;;6.84;100.00;101246.25;4944497;28;20207;-42
2023/10/23 06:57:34;;;;;;;8.70;6.35;;;;;;;7.06;100.00;101240.56;4946510;28;20197;-42
2023/10/23 07:00:00;;;;;;;8.73;6.65;;;;;;;7.04;100.00;101240.59;4947753;28;20213;-42
2023/10/23 07:02:25;;;;;;;8.48;5.93;;;;;;;7.07;100.00;101229.00;4943683;28;20333;-42
2023/10/23 07:04:52;;;;;;;9.80;6.45;;;;;;;7.23;100.00;101241.16;4942993;28;20564;-42
2023/10/23 07:07:17;;;;;;;15.00;6.63;;;;;;;7.29;100.00;101241.03;4947146;28;20207;-42
2023/10/23 07:09:43;;;;;;;8.10;6.40;;;;;;;7.27;100.00;101253.50;4943423;28;20195;-42
2023/10/23 07:12:08;;;;;;;10.32;6.32;;;;;;;7.40;100.00;101252.38;4948597;28;20201;-41
2023/10/23 07:14:33;;;;;;;6.97;6.00;;;;;;;7.49;100.00;101248.66;4942868;28;20214;-41
2023/10/23 07:16:59;;;;;;;7.13;6.05;;;;;;;7.34;100.00;101255.16;4951099;28;20240;-42
2023/10/23 07:19:24;;;;;;;10.10;5.75;;;;;;;7.42;100.00;101242.56;4943820;28;20269;-42
2023/10/23 07:21:50;;;;;;;9.73;5.93;;;;;;;7.48;100.00;101243.34;4944306;28;20615;-41
2023/10/23 07:24:15;;;;;;;7.85;5.50;;;;;;;7.55;100.00;101253.03;4946945;28;20306;-43
2023/10/23 07:26:41;;;;;;;9.93;6.43;;;;;;;7.55;100.00;101255.69;4948332;29;20763;-42
2023/10/23 07:29:06;;;;;;;8.05;6.30;;;;;;;7.48;100.00;101270.00;4945044;28;20571;-42
2023/10/23 07:31:32;;;;;;;8.20;5.53;;;;;;;7.49;100.00;101262.00;4945696;28;20273;-43
2023/10/23 07:33:57;;;;;;;8.02;5.47;;;;;;;7.47;100.00;101261.16;4945520;28;20705;-42
2023/10/23 07:36:23;;;;;;;6.07;5.30;;;;;;;7.37;100.00;101275.56;4945575;28;20186;-42
2023/10/23 07:38:49;;;;;;;6.72;5.18;;;;;;;7.35;100.00;101272.06;4945652;28;20225;-43
2023/10/23 07:41:14;;;;;;;13.45;5.70;;;;;;;7.38;100.00;101283.53;4944696;28;20405;-41
2023/10/23 07:43:41;;;;;;;7.88;6.20;;;;;;;7.39;100.00;101282.63;4947008;28;20226;-42
2023/10/23 07:46:10;;;;;;;6.95;5.72;;;;;;;7.38;100.00;101288.84;4943673;28;20206;-40
2023/10/23 07:48:36;;;;;;;9.25;5.97;;;;;;;7.43;100.00;101291.44;4945201;29;20612;-41
2023/10/23 07:51:03;;;;;;;15.95;6.63;;;;;;;7.49;100.00;101295.78;4945887;28;20194;-41
2023/10/23 07:53:31;;;;;;;11.15;5.82;;;;;;;7.52;100.00;101290.38;4949788;28;20637;-41
2023/10/23 07:55:56;;;;;;;8.05;5.95;;;;;;;7.56;100.00;101286.75;4947133;28;20203;-43
2023/10/23 07:58:22;;;;;;;9.70;6.13;;;;;;;7.53;100.00;101289.50;4945449;28;20692;-41
2023/10/23 08:00:51;;;;;;;14.00;5.45;;;;;;;7.49;100.00;101291.31;4935754;28;20253;-41
2023/10/23 08:03:17;;;;;;;9.55;5.45;;;;;;;7.56;100.00;101292.09;4942624;28;20187;-42
2023/10/23 08:05:42;;;;;;;11.45;5.47;;;;;;;7.59;100.00;101284.94;4944613;28;20343;-40
2023/10/23 08:08:08;;;;;;;7.22;5.45;;;;;;;8.00;100.00;101287.69;4942751;29;20675;-41
2023/10/23 08:10:33;;;;;;;9.23;5.50;;;;;;;8.54;100.00;101282.13;4939634;28;20244;-40
2023/10/23 08:12:59;;;;;;;10.00;5.47;;;;;;;8.18;100.00;101278.44;4945091;28;20188;-42
2023/10/23 08:15:24;;;;;;;8.18;5.85;;;;;;;8.07;100.00;101278.66;4944579;28;20218;-41
2023/10/23 08:17:50;;;;;;;9.13;5.72;;;;;;;8.06;100.00;101282.22;4947266;28;20186;-42
2023/10/23 08:20:17;;;;;;;7.35;5.25;;;;;;;8.02;100.00;101276.09;4946471;28;20182;-41
2023/10/23 08:22:42;;;;;;;13.10;6.00;;;;;;;8.11;100.00;101283.03;4943077;28;20668;-41
2023/10/23 08:25:08;;;;;;;14.85;5.13;;;;;;;8.13;100.00;101281.19;4944087;28;20301;-42
2023/10/23 08:27:34;;;;;;;7.68;4.95;;;;;;;8.25;100.00;101283.59;4948059;28;20198;-42
2023/10/23 08:29:59;;;;;;;6.90;5.07;;;;;;;8.27;100.00;101283.59;4942291;28;20227;-41
2023/10/23 08:32:25;;;;;;;7.35;5.40;;;;;;;8.29;100.00;101288.88;4944954;28;20194;-41
2023/10/23 08:34:53;;;;;;;11.35;5.72;;;;;;;8.22;100.00;101289.03;4940574;28;20215;-42
2023/10/23 08:37:19;;;;;;;8.60;4.65;;;;;;;8.21;100.00;101281.91;4946531;28;20190;-42
2023/10/23 08:39:45;;;;;;;11.50;5.10;;;;;;;8.29;100.00;101289.78;4931693;29;20187;-42
2023/10/23 08:42:11;;;;;;;6.97;5.55;;;;;;;8.38;100.00;101299.38;4944855;28;20187;-42
2023/10/23 08:44:36;;;;;;;8.32;5.05;;;;;;;8.66;100.00;101305.88;4943881;28;20210;-42
2023/10/23 08:47:02;;;;;;;11.68;5.55;;;;;;;9.09;100.00;101314.69;4943468;28;20198;-41
2023/10/23 08:49:29;;;;;;;7.50;5.18;;;;;;;9.50;100.00;101315.44;4942703;28;20471;-41
2023/10/23 08:51:58;;;;;;;7.85;5.82;;;;;;;9.71;100.00;101297.97;4946587;28;20653;-40
2023/10/23 08:54:24;;;;;;;10.07;5.65;;;;;;;9.99;100.00;101305.19;4943101;28;20558;-41
2023/10/23 08:56:58;;;;;;;7.53;5.32;;;;;;;10.09;100.00;101290.63;4944461;28;20182;-42
2023/10/23 08:59:24;;;;;;;6.80;4.75;;;;;;;10.27;100.00;101282.06;4944103;28;20197;-41
2023/10/23 09:01:50;;;;;;;6.65;4.78;;;;;;;10.27;100.00;101281.19;4925019;29;21900;-41
2023/10/23 09:04:16;;;;;;;8.63;4.60;;;;;;;10.31;100.00;101270.38;4944986;28;20226;-42
2023/10/23 09:06:45;;;;;;;7.13;4.50;;;;;;;10.57;100.00;101278.53;4943238;28;20215;-41
2023/10/23 09:09:10;;;;;;;6.20;3.83;;;;;;;10.29;100.00;101268.66;4927294;29;20187;-41
2023/10/23 09:11:48;;;;;;;10.25;4.20;;;;;;;10.65;100.00;101268.47;4941824;28;20202;-41
2023/10/23 09:14:27;;;;;;;7.55;4.22;;;;;;;10.46;100.00;101260.13;4945561;28;20285;-41
2023/10/23 09:16:56;;;;;;;8.15;3.47;;;;;;;10.33;100.00;101256.06;4945591;28;20190;-41
2023/10/23 09:19:38;;;;;;;9.02;4.63;;;;;;;10.36;100.00;101253.28;4945796;28;20630;-43
2023/10/23 09:22:06;;;;;;;7.38;3.80;;;;;;;10.33;100.00;101269.47;4943762;28;20190;-42
2023/10/23 09:24:32;;;;;;;5.82;3.92;;;;;;;10.16;100.00;101268.09;4945804;29;20566;-41
2023/10/23 09:26:57;;;;;;;6.35;3.85;;;;;;;9.99;100.00;101275.75;4946317;28;20202;-41
2023/10/23 09:29:23;;;;;;;6.97;3.65;;;;;;;9.89;100.00;101269.81;4945113;28;20181;-42
2023/10/23 09:31:50;;;;;;;6.55;4.65;;;;;;;9.98;100.00;101276.69;4942107;28;20202;-41
2023/10/23 09:34:20;;;;;;;8.52;4.82;;;;;;;9.85;100.00;101258.28;4947435;28;20191;-41
2023/10/23 09:36:50;;;;;;;5.50;4.05;;;;;;;9.92;100.00;101263.47;4950222;28;20187;-41
2023/10/23 09:39:16;;;;;;;5.18;3.78;;;;;;;9.96;100.00;101275.84;4951180;28;20195;-41
2023/10/23 09:41:42;;;;;;;5.40;4.15;;;;;;;9.99;100.00;101260.59;4948082;28;20650;-40
2023/10/23 09:44:09;;;;;;;5.75;3.78;;;;;;;10.10;100.00;101268.28;4946827;28;20314;-41
2023/10/23 09:46:35;;;;;;;5.10;3.70;;;;;;;10.09;100.00;101277.25;4950885;28;20206;-41
2023/10/23 09:49:03;;;;;;;6.15;4.07;;;;;;;10.06;100.00;101270.19;4949208;28;20245;-42
2023/10/23 09:51:39;;;;;;;5.57;3.58;;;;;;;10.16;100.00;101280.63;4948403;28;20229;-41
2023/10/23 09:54:15;;;;;;;7.57;3.55;;;;;;;10.12;100.00;101285.19;4946143;28;20183;-40
2023/10/23 09:56:47;;;;;;;6.22;3.60;;;;;;;10.14;100.00;101290.50;4952574;28;20182;-43
2023/10/23 09:59:15;;;;;;;9.13;3.53;;;;;;;10.18;100.00;101292.19;4945279;28;20193;-42
2023/10/23 10:01:42;;;;;;;8.65;3.55;;;;;;;10.14;100.00;101294.06;4948963;28;20240;-41
2023/10/23 10:04:36;;;;;;;7.05;3.60;;;;;;;10.10;100.00;101300.41;4944667;28;20188;-41
2023/10/23 10:07:10;;;;;;;6.65;3.60;;;;;;;10.13;100.00;101292.31;4948484;28;20213;-42
2023/10/23 10:09:37;;;;;;;7.00;3.50;;;;;;;10.17;100.00;101301.16;4946931;28;20198;-41
2023/10/23 10:12:04;;;;;;;12.85;6.38;;;;;;;10.15;100.00;101303.00;4947680;28;20671;-41
2023/10/23 10:14:31;;;;;;;7.93;3.63;;;;;;;10.08;100.00;101308.50;4944635;28;20230;-41
2023/10/23 10:16:57;;;;;;;4.00;3.13;;;;;;;10.18;100.00;101297.53;4946449;28;20214;-43
2023/10/23 10:19:25;;;;;;;7.18;3.75;;;;;;;10.27;100.00;101298.13;4949519;28;20274;-42
2023/10/23 10:22:03;;;;;;;6.57;3.33;;;;;;;10.25;100.00;101293.75;4946769;28;20646;-41
2023/10/23 10:24:29;;;;;;;3.42;2.72;;;;;;;10.32;100.00;101295.38;4944531;28;20229;-41
2023/10/23 10:26:56;;;;;;;8.55;3.08;;;;;;;10.41;100.00;101284.38;4943757;28;20742;-41
2023/10/23 10:29:25;;;;;;;5.15;2.97;;;;;;;10.70;100.00;101279.91;4946977;28;20567;-42
2023/10/23 10:32:09;;;;;;;5.72;2.67;;;;;;;10.99;100.00;101275.41;4945658;28;20186;-42
2023/10/23 10:34:55;;;;;;;6.25;2.88;;;;;;;11.06;100.00;101277.88;4947120;28;20285;-40
2023/10/23 10:37:24;;;;;;;6.60;2.72;;;;;;;11.19;100.00;101275.63;4943492;28;20195;-41
2023/10/23 10:39:52;;;;;;;8.25;3.03;;;;;;;11.04;100.00;101278.81;4945508;28;20254;-41
2023/10/23 10:42:18;;;;;;;5.85;2.55;;;;;;;11.12;100.00;101274.09;4945626;28;20898;-42
2023/10/23 10:45:10;;;;;;;5.75;2.63;;;;;;;11.49;100.00;101272.81;4950558;28;20209;-42
2023/10/23 10:47:41;;;;;;;3.88;2.38;;;;;;;11.45;100.00;101271.19;4946681;28;20193;-45
2023/10/23 10:50:07;;;;;;;7.57;2.85;;;;;;;11.64;100.00;101268.72;4946214;28;20503;-45
2023/10/23 10:52:35;;;;;;;3.30;2.30;;;;;;;11.65;100.00;101257.91;4944158;23;20620;-50
2023/10/23 10:55:03;;;;;;;3.38;2.08;;;;;;;11.65;100.00;101257.06;4939786;28;20211;-49
2023/10/23 10:57:29;;;;;;;5.93;2.47;;;;;;;11.93;100.00;101263.19;4950024;28;20180;-49
2023/10/23 10:59:57;;;;;;;2.85;2.05;;;;;;;12.14;100.00;101248.09;4938799;28;20289;-49
2023/10/23 11:02:23;;;;;;;2.85;2.00;;;;;;;12.16;100.00;101256.97;4942103;28;20190;-50
2023/10/23 11:04:49;;;;;;;9.25;2.10;;;;;;;11.84;100.00;101246.53;4953848;28;20206;-50
2023/10/23 11:07:19;;;;;;;5.97;1.75;;;;;;;12.07;100.00;101245.69;4956031;28;20659;-46
2023/10/23 11:09:44;;;;;;;5.88;1.98;;;;;;;12.21;100.00;101245.19;4949416;28;20190;-48
2023/10/23 11:12:10;;;;;;;4.65;1.65;;;;;;;12.12;100.00;101241.91;4955208;28;20182;-49
2023/10/23 11:14:38;;;;;;;3.92;1.90;;;;;;;12.13;100.00;101234.72;4954431;28;20234;-49
2023/10/23 11:17:05;;;;;;;4.95;1.80;;;;;;;12.25;100.00;101234.25;4951221;28;20218;-48
2023/10/23 11:19:31;;;;;;;5.85;2.13;;;;;;;12.44;100.00;101226.38;4949830;28;20186;-49